Time;durP1;ratioP1;P1;durP2;ratioP2;P2;SDS_P1;SDS_P2;PMS_P1;PMS_P2;Temp;Humidity;BMP_temperature;BMP_pressure;BME280_temperature;BME280_humidity;BME280_pressure;Samples;Min_cycle;Max_cycle;Signal;HPM_P1;HPM_P2
2021/06/25 00:00:51;;;;;;;13.50;10.65;;;;;;;;;;5090889;28;20426;-74
2021/06/25 00:03:16;;;;;;;14.50;11.27;;;;;;;;;;5091751;28;20028;-75
2021/06/25 00:05:42;;;;;;;14.48;11.43;;;;;;;;;;5089566;28;20475;-74
2021/06/25 00:08:07;;;;;;;12.65;11.35;;;;;;;;;;5092037;28;20357;-75
2021/06/25 00:10:33;;;;;;;12.52;10.85;;;;;;;;;;5090808;28;20020;-74
2021/06/25 00:12:59;;;;;;;12.35;10.40;;;;;;;;;;5091297;28;20475;-74
2021/06/25 00:15:25;;;;;;;13.68;11.30;;;;;;;;;;5091390;28;20094;-74
2021/06/25 00:17:52;;;;;;;13.48;11.57;;;;;;;;;;5090496;28;20119;-74
2021/06/25 00:20:19;;;;;;;15.10;11.48;;;;;;;;;;5090828;28;20077;-74
2021/06/25 00:22:45;;;;;;;12.60;11.05;;;;;;;;;;5091157;28;20110;-74
2021/06/25 00:25:11;;;;;;;12.95;11.30;;;;;;;;;;5090622;28;20067;-75
2021/06/25 00:27:37;;;;;;;15.75;10.90;;;;;;;;;;5090662;28;20031;-75
2021/06/25 00:30:05;;;;;;;12.07;10.80;;;;;;;;;;5090748;28;20388;-74
2021/06/25 00:32:31;;;;;;;14.50;11.70;;;;;;;;;;5090011;28;20073;-74
2021/06/25 00:34:56;;;;;;;14.88;11.77;;;;;;;;;;5097075;28;20098;-74
2021/06/25 00:37:23;;;;;;;14.35;11.88;;;;;;;;;;5111412;28;20028;-74
2021/06/25 00:39:49;;;;;;;13.20;11.82;;;;;;;;;;5111199;28;20114;-75
2021/06/25 00:42:14;;;;;;;14.68;11.73;;;;;;;;;;5092755;28;20108;-74
2021/06/25 00:44:41;;;;;;;14.15;11.32;;;;;;;;;;5089971;28;20081;-74
2021/06/25 00:47:09;;;;;;;13.02;11.70;;;;;;;;;;5090694;28;20028;-74
2021/06/25 00:49:38;;;;;;;14.55;11.52;;;;;;;;;;5090386;28;20016;-74
2021/06/25 00:52:04;;;;;;;14.10;11.95;;;;;;;;;;5090839;28;20039;-74
2021/06/25 00:54:30;;;;;;;14.60;12.38;;;;;;;;;;5090536;28;20020;-74
2021/06/25 00:56:55;;;;;;;12.90;11.43;;;;;;;;;;5090417;28;20031;-74
2021/06/25 00:59:21;;;;;;;12.73;11.43;;;;;;;;;;5092557;28;20047;-74
2021/06/25 01:01:46;;;;;;;13.02;11.43;;;;;;;;;;5094399;28;20331;-74
2021/06/25 01:04:13;;;;;;;13.10;10.18;;;;;;;;;;5094301;28;20024;-74
2021/06/25 01:06:39;;;;;;;12.77;10.82;;;;;;;;;;5094420;28;20028;-74
2021/06/25 01:09:08;;;;;;;12.95;11.57;;;;;;;;;;5096744;28;20028;-74
2021/06/25 01:11:34;;;;;;;14.50;11.57;;;;;;;;;;5094929;28;20019;-74
2021/06/25 01:14:00;;;;;;;13.60;11.52;;;;;;;;;;5095418;28;20107;-74
2021/06/25 01:16:26;;;;;;;13.85;11.70;;;;;;;;;;5094854;28;20123;-74
2021/06/25 01:18:54;;;;;;;14.00;12.20;;;;;;;;;;5093671;28;20379;-72
2021/06/25 01:21:19;;;;;;;13.20;11.60;;;;;;;;;;5094541;28;20077;-73
2021/06/25 01:23:45;;;;;;;12.43;10.77;;;;;;;;;;5094080;28;20024;-72
2021/06/25 01:26:11;;;;;;;12.20;10.90;;;;;;;;;;5093896;28;20027;-72
2021/06/25 01:28:37;;;;;;;12.10;9.80;;;;;;;;;;5093839;28;20416;-73
2021/06/25 01:31:04;;;;;;;12.82;9.30;;;;;;;;;;5093597;28;20060;-72
2021/06/25 01:33:29;;;;;;;19.92;9.82;;;;;;;;;;5093244;28;20127;-72
2021/06/25 01:35:56;;;;;;;14.68;10.18;;;;;;;;;;5107259;28;20471;-73
2021/06/25 01:38:22;;;;;;;13.35;9.05;;;;;;;;;;5114510;28;20027;-73
2021/06/25 01:40:48;;;;;;;10.07;8.25;;;;;;;;;;5098996;28;20028;-73
2021/06/25 01:43:13;;;;;;;14.10;8.88;;;;;;;;;;5093347;28;20487;-73
2021/06/25 01:45:41;;;;;;;14.07;8.95;;;;;;;;;;5093409;28;20051;-73
2021/06/25 01:48:07;;;;;;;11.65;8.25;;;;;;;;;;5093268;28;20039;-73
2021/06/25 01:50:37;;;;;;;10.43;8.55;;;;;;;;;;5092986;28;20426;-74
2021/06/25 01:53:05;;;;;;;11.13;8.48;;;;;;;;;;5093325;28;20023;-74
2021/06/25 01:55:40;;;;;;;7.97;6.60;;;;;;;;;;5093241;28;20034;-74
2021/06/25 01:58:11;;;;;;;10.10;6.70;;;;;;;;;;5093193;28;20089;-74
2021/06/25 02:00:39;;;;;;;13.10;7.85;;;;;;;;;;5092865;28;20383;-74
2021/06/25 02:03:05;;;;;;;9.20;6.43;;;;;;;;;;5093207;28;20031;-74
2021/06/25 02:05:30;;;;;;;12.63;6.95;;;;;;;;;;5092979;28;20471;-74
2021/06/25 02:07:56;;;;;;;10.95;6.95;;;;;;;;;;5096233;28;20430;-74
2021/06/25 02:10:21;;;;;;;11.13;6.13;;;;;;;;;;5092637;28;20538;-75
2021/06/25 02:12:47;;;;;;;10.48;6.63;;;;;;;;;;5092513;28;20389;-76
2021/06/25 02:15:13;;;;;;;9.13;6.55;;;;;;;;;;5092624;28;20471;-76
2021/06/25 02:17:39;;;;;;;10.13;6.82;;;;;;;;;;5092988;28;20028;-76
2021/06/25 02:20:06;;;;;;;10.30;7.05;;;;;;;;;;5092529;28;20019;-76
2021/06/25 02:22:32;;;;;;;9.85;6.70;;;;;;;;;;5072690;28;20095;-78
2021/06/25 02:24:57;;;;;;;9.75;6.38;;;;;;;;;;5089261;28;20437;-78
2021/06/25 02:27:23;;;;;;;7.90;5.18;;;;;;;;;;5092834;28;20095;-77
2021/06/25 02:29:48;;;;;;;7.47;5.05;;;;;;;;;;5092624;28;20034;-77
2021/06/25 02:32:14;;;;;;;6.30;5.18;;;;;;;;;;5092597;28;20077;-77
2021/06/25 02:34:39;;;;;;;7.45;5.10;;;;;;;;;;5095473;28;20027;-77
2021/06/25 02:37:05;;;;;;;8.27;5.75;;;;;;;;;;5112993;28;20023;-76
2021/06/25 02:39:30;;;;;;;8.70;5.95;;;;;;;;;;5112957;28;20020;-77
2021/06/25 02:41:56;;;;;;;10.10;6.20;;;;;;;;;;5112871;28;20043;-78
2021/06/25 02:44:21;;;;;;;11.15;6.60;;;;;;;;;;5101078;28;20048;-78
2021/06/25 02:46:47;;;;;;;7.22;5.93;;;;;;;;;;5092528;28;20020;-78
2021/06/25 02:49:12;;;;;;;10.32;6.45;;;;;;;;;;5092258;28;20110;-78
2021/06/25 02:51:38;;;;;;;11.40;7.20;;;;;;;;;;5091991;28;20028;-78
2021/06/25 02:54:04;;;;;;;11.52;8.05;;;;;;;;;;5091794;28;20348;-78
2021/06/25 02:56:29;;;;;;;9.60;7.13;;;;;;;;;;5091896;28;20047;-78
2021/06/25 02:58:55;;;;;;;8.00;6.28;;;;;;;;;;5091945;28;20055;-78
2021/06/25 03:01:20;;;;;;;9.18;7.45;;;;;;;;;;5092228;28;20106;-79
2021/06/25 03:03:46;;;;;;;6.72;5.82;;;;;;;;;;5092019;28;20024;-80
2021/06/25 03:06:11;;;;;;;7.35;5.80;;;;;;;;;;5091828;28;20049;-77
2021/06/25 03:08:37;;;;;;;8.63;5.32;;;;;;;;;;5099469;28;20070;-79
2021/06/25 03:11:02;;;;;;;6.78;5.70;;;;;;;;;;5071720;28;20024;-78
2021/06/25 03:13:28;;;;;;;9.13;5.05;;;;;;;;;;5071886;28;20340;-78
2021/06/25 03:15:54;;;;;;;6.05;5.03;;;;;;;;;;5085023;28;20055;-80
2021/06/25 03:18:19;;;;;;;6.35;4.75;;;;;;;;;;5091290;28;20034;-80
2021/06/25 03:20:46;;;;;;;6.25;5.65;;;;;;;;;;5090964;28;20027;-79
2021/06/25 03:23:11;;;;;;;7.60;5.40;;;;;;;;;;5091168;28;20497;-79
2021/06/25 03:25:37;;;;;;;8.85;6.10;;;;;;;;;;5091489;28;20028;-79
2021/06/25 03:28:04;;;;;;;7.25;5.78;;;;;;;;;;5092646;28;20027;-79
2021/06/25 03:30:30;;;;;;;7.60;5.47;;;;;;;;;;5094740;28;20024;-80
2021/06/25 03:32:56;;;;;;;6.50;5.10;;;;;;;;;;5094235;28;20046;-79
2021/06/25 03:35:21;;;;;;;7.57;5.57;;;;;;;;;;5092661;28;20024;-79
2021/06/25 03:37:47;;;;;;;6.57;5.20;;;;;;;;;;5094087;28;20032;-79
2021/06/25 03:40:15;;;;;;;11.30;5.43;;;;;;;;;;5091939;28;20073;-79
2021/06/25 03:42:42;;;;;;;7.47;5.53;;;;;;;;;;5092274;28;20458;-79
2021/06/25 03:45:10;;;;;;;7.78;5.40;;;;;;;;;;5091753;28;20112;-79
2021/06/25 03:47:35;;;;;;;6.57;5.70;;;;;;;;;;5092034;28;20055;-78
2021/06/25 03:50:04;;;;;;;8.63;5.43;;;;;;;;;;5092846;28;20467;-78
2021/06/25 03:52:29;;;;;;;7.15;5.30;;;;;;;;;;5091476;28;20032;-79
2021/06/25 03:54:55;;;;;;;6.10;5.28;;;;;;;;;;5092675;28;20039;-78
2021/06/25 03:57:20;;;;;;;7.93;5.75;;;;;;;;;;5093240;28;20026;-79
2021/06/25 03:59:46;;;;;;;7.53;5.95;;;;;;;;;;5092142;28;20044;-79
2021/06/25 04:02:11;;;;;;;6.95;5.63;;;;;;;;;;5090945;28;20024;-79
2021/06/25 04:04:38;;;;;;;8.35;5.65;;;;;;;;;;5091438;28;20039;-78
2021/06/25 04:07:05;;;;;;;6.75;5.38;;;;;;;;;;5095049;28;20030;-78
2021/06/25 04:09:31;;;;;;;8.55;6.03;;;;;;;;;;5114027;28;20028;-70
2021/06/25 04:11:57;;;;;;;6.80;5.72;;;;;;;;;;5104973;28;20077;-73
2021/06/25 04:14:22;;;;;;;7.57;6.22;;;;;;;;;;5090419;28;20024;-73
2021/06/25 04:16:48;;;;;;;7.88;6.35;;;;;;;;;;5090852;28;20103;-73
2021/06/25 04:19:14;;;;;;;12.43;6.57;;;;;;;;;;5090819;28;20020;-73
2021/06/25 04:21:39;;;;;;;10.32;6.97;;;;;;;;;;5090919;28;20061;-73
2021/06/25 04:24:05;;;;;;;10.57;6.70;;;;;;;;;;5090517;28;20335;-73
2021/06/25 04:26:31;;;;;;;8.38;7.07;;;;;;;;;;5091276;28;20028;-72
2021/06/25 04:28:57;;;;;;;7.82;6.68;;;;;;;;;;5090769;28;20028;-72
2021/06/25 04:31:22;;;;;;;11.02;7.72;;;;;;;;;;5090793;28;20086;-72
2021/06/25 04:33:48;;;;;;;8.25;7.13;;;;;;;;;;5093374;28;20048;-73
2021/06/25 04:36:13;;;;;;;9.23;6.90;;;;;;;;;;5109744;28;20547;-73
2021/06/25 04:38:39;;;;;;;7.95;7.15;;;;;;;;;;5095376;28;20032;-73
2021/06/25 04:41:04;;;;;;;8.02;6.93;;;;;;;;;;5095360;28;20042;-72
2021/06/25 04:43:30;;;;;;;8.60;7.40;;;;;;;;;;5094509;28;20031;-72
2021/06/25 04:45:58;;;;;;;9.45;7.32;;;;;;;;;;5090444;28;20031;-73
2021/06/25 04:48:23;;;;;;;8.88;7.65;;;;;;;;;;5094753;28;20034;-72
2021/06/25 04:50:49;;;;;;;10.52;7.45;;;;;;;;;;5094459;28;20114;-73
2021/06/25 04:53:14;;;;;;;10.27;7.70;;;;;;;;;;5094686;28;20032;-74
2021/06/25 04:55:41;;;;;;;8.98;7.40;;;;;;;;;;5094429;28;20051;-73
2021/06/25 04:58:09;;;;;;;9.75;6.35;;;;;;;;;;5094578;28;20020;-72
2021/06/25 05:00:35;;;;;;;9.85;7.03;;;;;;;;;;5074166;28;20081;-72
2021/06/25 05:03:00;;;;;;;6.80;4.55;;;;;;;;;;5088221;28;20111;-73
2021/06/25 05:05:26;;;;;;;6.47;4.50;;;;;;;;;;5094249;28;20298;-72
2021/06/25 05:07:52;;;;;;;6.10;4.40;;;;;;;;;;5104051;28;20110;-72
2021/06/25 05:10:17;;;;;;;6.07;4.32;;;;;;;;;;5114650;28;20032;-72
2021/06/25 05:12:43;;;;;;;4.88;3.67;;;;;;;;;;5101117;28;20028;-73
2021/06/25 05:15:09;;;;;;;5.00;3.78;;;;;;;;;;5093725;28;20032;-73
2021/06/25 05:17:35;;;;;;;5.85;3.85;;;;;;;;;;5094189;28;20085;-73
2021/06/25 05:20:03;;;;;;;6.13;3.85;;;;;;;;;;5093941;28;20028;-73
2021/06/25 05:22:28;;;;;;;4.35;3.75;;;;;;;;;;5094657;28;20020;-73
2021/06/25 05:24:54;;;;;;;5.15;3.35;;;;;;;;;;5093739;28;20023;-72
2021/06/25 05:27:20;;;;;;;7.45;4.13;;;;;;;;;;5094023;28;20126;-73
2021/06/25 05:29:45;;;;;;;5.57;3.35;;;;;;;;;;5093777;28;20494;-73
2021/06/25 05:32:11;;;;;;;6.45;3.72;;;;;;;;;;5093132;28;20024;-73
2021/06/25 05:34:36;;;;;;;7.25;3.20;;;;;;;;;;5093791;28;20031;-73
2021/06/25 05:37:02;;;;;;;4.78;3.03;;;;;;;;;;5093342;28;20238;-73
2021/06/25 05:39:27;;;;;;;3.90;3.13;;;;;;;;;;5093876;28;20026;-73
2021/06/25 05:41:53;;;;;;;4.72;3.00;;;;;;;;;;5093275;28;20020;-73
2021/06/25 05:44:18;;;;;;;4.28;2.72;;;;;;;;;;5092922;28;20032;-73
2021/06/25 05:46:44;;;;;;;4.68;2.92;;;;;;;;;;5092589;28;20521;-73
2021/06/25 05:49:09;;;;;;;5.45;2.60;;;;;;;;;;5094252;28;20115;-73
2021/06/25 05:51:35;;;;;;;4.45;3.17;;;;;;;;;;5094359;28;20016;-74
2021/06/25 05:54:00;;;;;;;6.75;3.28;;;;;;;;;;5093940;28;20019;-73
2021/06/25 05:56:25;;;;;;;4.68;2.97;;;;;;;;;;5093492;28;20016;-73
2021/06/25 05:58:51;;;;;;;6.03;3.30;;;;;;;;;;5092939;28;20101;-73
2021/06/25 06:01:16;;;;;;;4.22;3.70;;;;;;;;;;5093344;28;20376;-72
2021/06/25 06:03:42;;;;;;;6.10;3.60;;;;;;;;;;5093213;28;20026;-72
2021/06/25 06:06:07;;;;;;;4.95;3.83;;;;;;;;;;5092803;28;20019;-72
2021/06/25 06:08:33;;;;;;;4.82;3.63;;;;;;;;;;5108781;28;20114;-72
2021/06/25 06:10:58;;;;;;;5.13;3.50;;;;;;;;;;5112081;28;20507;-72
2021/06/25 06:13:24;;;;;;;5.20;3.58;;;;;;;;;;5092747;28;20024;-72
2021/06/25 06:15:51;;;;;;;5.03;3.13;;;;;;;;;;5092884;28;20032;-72
2021/06/25 06:18:26;;;;;;;5.13;2.90;;;;;;;;;;5093113;28;20410;-73
2021/06/25 06:20:52;;;;;;;4.78;3.33;;;;;;;;;;5092706;28;20098;-72
2021/06/25 06:31:32;;;;;;;5.50;3.10;;;;;;;;;;5092572;28;20548;-73
2021/06/25 06:33:59;;;;;;;3.67;2.75;;;;;;;;;;5092618;28;20035;-74
2021/06/25 06:36:41;;;;;;;4.10;2.70;;;;;;;;;;5110396;28;20057;-73
2021/06/25 06:39:07;;;;;;;6.22;2.67;;;;;;;;;;5102155;28;20032;-73
2021/06/25 06:41:33;;;;;;;5.63;2.85;;;;;;;;;;5091550;28;20491;-72
2021/06/25 06:44:00;;;;;;;4.95;2.58;;;;;;;;;;5092983;28;20543;-71
2021/06/25 06:46:25;;;;;;;10.88;2.60;;;;;;;;;;5093352;28;20026;-71
2021/06/25 06:48:52;;;;;;;4.80;2.25;;;;;;;;;;5093397;28;20032;-72
2021/06/25 06:51:19;;;;;;;4.85;2.08;;;;;;;;;;5092911;28;20304;-72
2021/06/25 06:53:44;;;;;;;2.97;1.95;;;;;;;;;;5093180;28;20658;-72
2021/06/25 06:56:15;;;;;;;5.05;2.28;;;;;;;;;;5093098;28;20020;-73
2021/06/25 06:58:41;;;;;;;5.28;1.80;;;;;;;;;;5092890;28;20031;-72
2021/06/25 07:01:08;;;;;;;2.83;1.85;;;;;;;;;;5092616;28;20099;-72
2021/06/25 07:03:34;;;;;;;3.45;2.00;;;;;;;;;;5093324;28;20028;-71
2021/06/25 07:06:00;;;;;;;3.38;2.08;;;;;;;;;;5091257;28;20038;-73
2021/06/25 07:08:26;;;;;;;2.90;2.17;;;;;;;;;;5106571;28;20024;-71
2021/06/25 07:10:51;;;;;;;3.20;1.98;;;;;;;;;;5092756;28;20042;-72
2021/06/25 07:13:17;;;;;;;4.15;1.92;;;;;;;;;;5091318;28;20047;-71
2021/06/25 07:15:43;;;;;;;5.57;2.13;;;;;;;;;;5091411;28;20028;-72
2021/06/25 07:18:09;;;;;;;2.90;1.88;;;;;;;;;;5091031;28;20028;-71
2021/06/25 07:20:34;;;;;;;3.97;2.00;;;;;;;;;;5087378;28;20658;-71
2021/06/25 07:23:00;;;;;;;4.50;2.40;;;;;;;;;;5091153;28;20039;-71
2021/06/25 07:25:27;;;;;;;2.85;2.15;;;;;;;;;;5091982;28;20023;-72
2021/06/25 07:27:52;;;;;;;3.60;2.03;;;;;;;;;;5091687;28;20146;-71
2021/06/25 07:30:18;;;;;;;4.90;2.30;;;;;;;;;;5092366;28;20599;-71
2021/06/25 07:32:44;;;;;;;3.55;2.03;;;;;;;;;;5092580;28;20027;-71
2021/06/25 07:35:10;;;;;;;5.40;2.33;;;;;;;;;;5093963;28;20028;-71
2021/06/25 07:37:35;;;;;;;3.72;2.40;;;;;;;;;;5090762;28;20036;-71
2021/06/25 07:40:01;;;;;;;4.05;2.25;;;;;;;;;;5081709;28;20082;-71
2021/06/25 07:42:26;;;;;;;4.20;2.70;;;;;;;;;;5089335;28;20020;-74
2021/06/25 07:44:52;;;;;;;3.63;2.33;;;;;;;;;;5080517;28;20503;-74
2021/06/25 07:47:18;;;;;;;3.67;2.67;;;;;;;;;;5084977;28;20107;-74
2021/06/25 07:49:44;;;;;;;3.40;2.30;;;;;;;;;;5089283;28;20031;-74
2021/06/25 07:52:10;;;;;;;3.95;2.40;;;;;;;;;;5091054;28;20119;-74
2021/06/25 07:54:37;;;;;;;4.22;2.25;;;;;;;;;;5092157;28;20054;-74
2021/06/25 07:57:03;;;;;;;3.03;2.40;;;;;;;;;;5091159;28;20506;-74
2021/06/25 07:59:29;;;;;;;4.00;1.83;;;;;;;;;;5090553;28;20043;-74
2021/06/25 08:01:54;;;;;;;2.75;2.13;;;;;;;;;;5090793;28;20024;-75
2021/06/25 08:04:20;;;;;;;2.83;1.85;;;;;;;;;;5090827;28;20023;-74
2021/06/25 08:06:45;;;;;;;3.28;2.10;;;;;;;;;;5091504;28;20028;-75
2021/06/25 08:09:11;;;;;;;2.65;2.00;;;;;;;;;;5110791;28;20027;-74
2021/06/25 08:11:36;;;;;;;3.05;2.13;;;;;;;;;;5111218;28;20416;-75
2021/06/25 08:14:02;;;;;;;4.95;2.15;;;;;;;;;;5111219;28;20028;-74
2021/06/25 08:16:27;;;;;;;2.35;1.85;;;;;;;;;;5111439;28;20015;-74
2021/06/25 08:18:57;;;;;;;3.80;1.98;;;;;;;;;;5111338;28;20024;-74
2021/06/25 08:21:27;;;;;;;3.63;2.00;;;;;;;;;;5100203;28;20414;-75
2021/06/25 08:23:52;;;;;;;4.25;2.55;;;;;;;;;;5090416;28;20020;-73
2021/06/25 08:26:18;;;;;;;2.83;2.10;;;;;;;;;;5090406;28;20051;-74
2021/06/25 08:28:43;;;;;;;5.57;2.10;;;;;;;;;;5090844;28;20364;-73
2021/06/25 08:31:09;;;;;;;2.88;2.00;;;;;;;;;;5090765;28;20305;-74
2021/06/25 08:33:34;;;;;;;2.88;2.22;;;;;;;;;;5090789;28;20031;-74
2021/06/25 08:36:00;;;;;;;3.72;2.40;;;;;;;;;;5104888;28;20081;-74
2021/06/25 08:38:25;;;;;;;4.85;2.28;;;;;;;;;;5111048;28;20027;-74
2021/06/25 08:40:51;;;;;;;3.72;2.20;;;;;;;;;;5111074;28;20016;-74
2021/06/25 08:43:16;;;;;;;3.08;2.47;;;;;;;;;;5111065;28;20023;-75
2021/06/25 08:45:43;;;;;;;3.80;2.70;;;;;;;;;;5111154;28;20570;-74
2021/06/25 08:48:09;;;;;;;3.15;1.90;;;;;;;;;;5111108;28;20024;-74
2021/06/25 08:50:39;;;;;;;2.20;1.90;;;;;;;;;;5100239;28;20082;-74
2021/06/25 08:53:05;;;;;;;3.33;2.33;;;;;;;;;;5090107;28;20032;-75
2021/06/25 08:55:31;;;;;;;4.40;2.15;;;;;;;;;;5090891;28;20015;-74
2021/06/25 08:57:57;;;;;;;3.97;2.30;;;;;;;;;;5090334;28;20016;-74
2021/06/25 09:00:23;;;;;;;3.55;2.20;;;;;;;;;;5088737;28;20036;-74
2021/06/25 09:02:48;;;;;;;5.32;2.20;;;;;;;;;;5087848;28;20039;-74
2021/06/25 09:05:21;;;;;;;3.08;2.17;;;;;;;;;;5085270;28;20020;-72
2021/06/25 09:07:46;;;;;;;2.78;1.98;;;;;;;;;;5099186;28;20111;-74
2021/06/25 09:10:14;;;;;;;2.47;1.70;;;;;;;;;;5110501;28;20153;-74
2021/06/25 09:12:40;;;;;;;2.75;1.88;;;;;;;;;;5094141;28;20067;-75
2021/06/25 09:15:15;;;;;;;2.67;1.83;;;;;;;;;;5089701;28;20028;-74
2021/06/25 09:17:53;;;;;;;2.10;1.70;;;;;;;;;;5090215;28;20035;-74
2021/06/25 09:20:34;;;;;;;3.33;1.92;;;;;;;;;;5091437;28;20024;-73
2021/06/25 09:23:03;;;;;;;6.28;1.90;;;;;;;;;;5092986;28;20028;-72
2021/06/25 09:25:29;;;;;;;3.20;1.58;;;;;;;;;;5094671;28;20020;-73
2021/06/25 09:28:01;;;;;;;2.33;1.52;;;;;;;;;;5094154;28;20502;-74
2021/06/25 09:30:41;;;;;;;4.63;2.03;;;;;;;;;;5093698;28;20042;-74
2021/06/25 09:33:11;;;;;;;2.38;1.92;;;;;;;;;;5093904;28;20035;-73
2021/06/25 09:35:37;;;;;;;4.43;1.90;;;;;;;;;;5105390;28;20165;-71
2021/06/25 09:38:03;;;;;;;2.70;1.67;;;;;;;;;;5114347;28;20020;-74
2021/06/25 09:40:36;;;;;;;3.50;1.85;;;;;;;;;;5114731;28;20026;-74
2021/06/25 09:43:12;;;;;;;3.28;1.63;;;;;;;;;;5114254;28;20027;-74
2021/06/25 09:45:47;;;;;;;4.60;1.85;;;;;;;;;;5111724;28;20477;-73
2021/06/25 09:48:13;;;;;;;4.07;2.00;;;;;;;;;;5093650;28;20046;-73
2021/06/25 09:50:38;;;;;;;2.45;1.90;;;;;;;;;;5093394;28;20024;-72
2021/06/25 09:53:06;;;;;;;2.67;1.70;;;;;;;;;;5093009;28;20409;-73
2021/06/25 09:55:55;;;;;;;2.85;1.80;;;;;;;;;;5092568;28;20033;-73
2021/06/25 10:03:59;;;;;;;2.85;1.80;;;;;;;;;;5093445;28;20470;-72
2021/06/25 10:06:32;;;;;;;3.72;2.38;;;;;;;;;;5093751;28;20106;-71
2021/06/25 10:08:59;;;;;;;4.05;2.20;;;;;;;;;;5092148;28;20378;-71
2021/06/25 10:11:26;;;;;;;4.13;2.17;;;;;;;;;;5090666;28;20026;-70
2021/06/25 10:13:54;;;;;;;3.33;2.10;;;;;;;;;;5093918;28;20024;-71
2021/06/25 10:16:22;;;;;;;2.83;2.22;;;;;;;;;;5093769;28;20043;-71
2021/06/25 10:18:50;;;;;;;5.10;1.90;;;;;;;;;;5094466;28;20382;-72
2021/06/25 10:21:25;;;;;;;2.50;1.95;;;;;;;;;;5093392;28;20023;-71
2021/06/25 10:23:53;;;;;;;2.70;2.15;;;;;;;;;;5092831;28;20154;-71
2021/06/25 10:26:23;;;;;;;3.50;2.30;;;;;;;;;;5094849;28;20024;-71
2021/06/25 10:28:51;;;;;;;4.63;2.28;;;;;;;;;;5095224;28;20024;-71
2021/06/25 10:31:20;;;;;;;5.03;2.22;;;;;;;;;;5094286;28;20024;-70
2021/06/25 10:33:46;;;;;;;3.28;2.30;;;;;;;;;;5094363;28;20402;-71
2021/06/25 10:36:14;;;;;;;4.97;2.50;;;;;;;;;;5110623;28;20033;-71
2021/06/25 10:38:43;;;;;;;4.65;2.30;;;;;;;;;;5114896;28;20185;-72
2021/06/25 10:41:11;;;;;;;2.95;2.20;;;;;;;;;;5101280;28;20023;-70
2021/06/25 10:43:50;;;;;;;3.83;2.42;;;;;;;;;;5094204;28;20360;-70
2021/06/25 10:46:25;;;;;;;4.38;2.47;;;;;;;;;;5094247;28;20107;-71
2021/06/25 10:48:54;;;;;;;2.45;2.10;;;;;;;;;;5092964;28;20028;-71
2021/06/25 10:51:25;;;;;;;4.68;1.80;;;;;;;;;;5093299;28;20103;-70
2021/06/25 10:54:20;;;;;;;3.80;2.42;;;;;;;;;;5092736;28;20024;-71
2021/06/25 10:56:49;;;;;;;5.68;2.20;;;;;;;;;;5092563;28;20032;-71
2021/06/25 10:59:28;;;;;;;3.17;2.13;;;;;;;;;;5091589;28;20040;-71
2021/06/25 11:01:57;;;;;;;5.65;2.00;;;;;;;;;;5091635;28;20366;-72
2021/06/25 11:04:35;;;;;;;3.60;1.80;;;;;;;;;;5092451;28;20075;-71
2021/06/25 11:07:05;;;;;;;2.65;1.95;;;;;;;;;;5095582;28;20031;-71
2021/06/25 11:09:52;;;;;;;3.45;2.00;;;;;;;;;;5112471;28;20080;-72
2021/06/25 11:12:39;;;;;;;5.35;2.10;;;;;;;;;;5112745;28;20028;-71
2021/06/25 11:15:04;;;;;;;2.65;1.98;;;;;;;;;;5113305;28;20028;-71
2021/06/25 11:17:53;;;;;;;4.50;2.10;;;;;;;;;;5112171;28;20426;-70
2021/06/25 11:20:35;;;;;;;3.17;1.92;;;;;;;;;;5101767;28;20012;-73
2021/06/25 11:23:05;;;;;;;4.38;2.10;;;;;;;;;;5089954;28;20028;-71
2021/06/25 11:25:38;;;;;;;3.05;2.10;;;;;;;;;;5090397;28;20463;-71
2021/06/25 11:28:13;;;;;;;3.10;2.10;;;;;;;;;;5091610;28;20024;-72
2021/06/25 11:30:50;;;;;;;2.30;1.83;;;;;;;;;;5091282;28;20028;-72
2021/06/25 11:33:30;;;;;;;2.80;2.20;;;;;;;;;;5080809;28;20032;-71
2021/06/25 11:36:21;;;;;;;2.60;1.83;;;;;;;;;;5100459;28;20022;-71
2021/06/25 11:39:12;;;;;;;2.67;1.90;;;;;;;;;;5079925;28;20475;-71
2021/06/25 11:41:41;;;;;;;2.30;1.80;;;;;;;;;;5089029;28;20097;-71
2021/06/25 11:44:20;;;;;;;3.17;2.20;;;;;;;;;;5088679;28;20024;-71
2021/06/25 11:47:02;;;;;;;2.92;1.80;;;;;;;;;;5091406;28;20113;-72
2021/06/25 11:49:39;;;;;;;3.30;2.10;;;;;;;;;;5090203;28;20027;-72
2021/06/25 11:52:09;;;;;;;3.45;2.20;;;;;;;;;;5080781;28;20114;-72
2021/06/25 11:54:36;;;;;;;4.35;2.55;;;;;;;;;;5092105;28;20023;-72
2021/06/25 11:57:02;;;;;;;3.03;2.08;;;;;;;;;;5090907;28;20596;-71
2021/06/25 11:59:28;;;;;;;2.75;2.20;;;;;;;;;;5090390;28;20402;-71
2021/06/25 12:01:59;;;;;;;2.63;1.92;;;;;;;;;;5090076;28;20024;-71
2021/06/25 12:04:35;;;;;;;2.88;2.08;;;;;;;;;;5092240;28;20067;-72
2021/06/25 12:07:02;;;;;;;2.35;1.63;;;;;;;;;;5091862;28;20081;-71
2021/06/25 12:09:51;;;;;;;3.33;1.50;;;;;;;;;;5089797;28;20020;-71
2021/06/25 12:12:22;;;;;;;2.13;1.60;;;;;;;;;;5088924;28;20024;-72
2021/06/25 12:14:53;;;;;;;2.67;1.80;;;;;;;;;;5088682;28;20024;-73
2021/06/25 12:17:19;;;;;;;2.20;1.60;;;;;;;;;;5093307;28;20046;-71
2021/06/25 12:20:05;;;;;;;3.45;1.58;;;;;;;;;;5091767;28;20077;-71
2021/06/25 12:22:31;;;;;;;5.32;2.10;;;;;;;;;;5092289;28;20031;-71
2021/06/25 12:24:57;;;;;;;2.10;1.33;;;;;;;;;;5090420;28;20028;-72
2021/06/25 12:27:37;;;;;;;2.35;1.80;;;;;;;;;;5095526;28;20379;-71
2021/06/25 12:30:13;;;;;;;2.63;1.70;;;;;;;;;;5096187;28;20397;-72
2021/06/25 12:32:39;;;;;;;3.15;1.60;;;;;;;;;;5095957;28;20025;-73
2021/06/25 12:35:11;;;;;;;5.43;1.80;;;;;;;;;;5090479;28;20027;-74
2021/06/25 12:37:49;;;;;;;2.30;1.83;;;;;;;;;;5071932;28;20020;-72
2021/06/25 12:40:40;;;;;;;3.03;1.73;;;;;;;;;;5091710;28;20062;-73
2021/06/25 12:43:19;;;;;;;2.25;1.67;;;;;;;;;;5090407;28;20036;-73
2021/06/25 12:45:54;;;;;;;3.38;2.05;;;;;;;;;;5090654;28;20640;-73
2021/06/25 12:48:23;;;;;;;3.00;2.00;;;;;;;;;;5090474;28;20447;-71
2021/06/25 12:50:55;;;;;;;2.00;1.58;;;;;;;;;;5092020;28;20030;-72
2021/06/25 12:53:28;;;;;;;2.58;1.52;;;;;;;;;;5098003;28;20467;-72
2021/06/25 12:55:54;;;;;;;2.53;1.70;;;;;;;;;;5095542;28;20032;-73
2021/06/25 12:58:21;;;;;;;2.83;1.90;;;;;;;;;;5094619;28;20027;-74
2021/06/25 13:00:53;;;;;;;2.45;1.90;;;;;;;;;;5101267;28;20068;-71
2021/06/25 13:03:20;;;;;;;2.55;1.80;;;;;;;;;;5095212;28;20471;-71
2021/06/25 13:05:45;;;;;;;4.45;2.10;;;;;;;;;;5095691;28;20027;-71
2021/06/25 13:08:23;;;;;;;3.17;1.83;;;;;;;;;;5100295;28;20077;-71
2021/06/25 13:10:50;;;;;;;3.75;1.80;;;;;;;;;;5103150;28;20035;-73
2021/06/25 13:13:30;;;;;;;2.97;1.90;;;;;;;;;;5095465;28;20038;-72
2021/06/25 13:16:05;;;;;;;2.63;1.90;;;;;;;;;;5094751;28;20027;-72
2021/06/25 13:18:41;;;;;;;2.95;2.13;;;;;;;;;;5096808;28;20098;-72
2021/06/25 13:21:27;;;;;;;2.75;2.00;;;;;;;;;;5094012;28;20410;-74
2021/06/25 13:24:31;;;;;;;2.78;2.15;;;;;;;;;;5091051;28;20031;-72
2021/06/25 13:26:59;;;;;;;3.13;2.42;;;;;;;;;;5100682;28;20032;-74
2021/06/25 13:29:50;;;;;;;2.85;2.30;;;;;;;;;;5099095;28;20027;-73
2021/06/25 13:32:33;;;;;;;3.95;2.42;;;;;;;;;;5111399;28;20016;-73
2021/06/25 13:35:07;;;;;;;3.22;2.45;;;;;;;;;;5101663;28;20462;-73
2021/06/25 13:37:47;;;;;;;4.22;2.90;;;;;;;;;;5086943;28;20038;-74
2021/06/25 13:40:33;;;;;;;4.03;2.90;;;;;;;;;;5092365;28;20020;-73
2021/06/25 13:43:13;;;;;;;4.10;2.45;;;;;;;;;;5093377;28;20024;-74
2021/06/25 13:45:40;;;;;;;3.05;2.72;;;;;;;;;;5081608;28;20115;-73
2021/06/25 13:48:24;;;;;;;4.88;2.80;;;;;;;;;;5094592;28;20024;-73
2021/06/25 13:50:59;;;;;;;4.13;2.95;;;;;;;;;;5074806;28;20191;-73
2021/06/25 13:53:43;;;;;;;5.30;3.00;;;;;;;;;;5092536;28;20028;-73
2021/06/25 13:56:17;;;;;;;4.15;3.08;;;;;;;;;;5090782;28;20421;-73
2021/06/25 13:59:07;;;;;;;4.95;3.20;;;;;;;;;;5074089;28;20082;-72
2021/06/25 14:01:46;;;;;;;5.85;3.17;;;;;;;;;;5091054;28;20483;-72
2021/06/25 14:04:20;;;;;;;4.30;3.10;;;;;;;;;;5075684;28;20039;-72
2021/06/25 14:06:53;;;;;;;4.13;3.50;;;;;;;;;;5075204;28;20027;-72
2021/06/25 14:09:23;;;;;;;5.75;4.05;;;;;;;;;;5114523;28;20026;-72
2021/06/25 14:11:49;;;;;;;4.93;3.85;;;;;;;;;;5115112;28;20133;-73
2021/06/25 14:14:15;;;;;;;4.80;3.70;;;;;;;;;;5115431;27;20031;-73
2021/06/25 14:16:41;;;;;;;6.20;4.10;;;;;;;;;;5115457;28;20119;-73
2021/06/25 14:19:14;;;;;;;4.55;3.42;;;;;;;;;;5113787;28;20051;-72
2021/06/25 14:21:44;;;;;;;4.43;3.28;;;;;;;;;;5113482;28;20098;-73
2021/06/25 14:24:13;;;;;;;4.40;3.50;;;;;;;;;;5113551;28;20424;-73
2021/06/25 14:26:40;;;;;;;5.18;3.70;;;;;;;;;;5096082;27;20055;-72
2021/06/25 14:29:07;;;;;;;5.50;4.10;;;;;;;;;;5093902;28;20032;-73
2021/06/25 14:31:34;;;;;;;5.50;3.83;;;;;;;;;;5093673;28;20083;-74
2021/06/25 14:34:01;;;;;;;5.93;3.50;;;;;;;;;;5094079;28;20403;-73
2021/06/25 14:36:26;;;;;;;5.03;3.33;;;;;;;;;;5093315;28;20471;-73
2021/06/25 14:38:52;;;;;;;5.45;3.80;;;;;;;;;;5091449;28;20088;-72
2021/06/25 14:41:18;;;;;;;5.45;3.92;;;;;;;;;;5092548;28;20040;-72
2021/06/25 14:43:43;;;;;;;6.60;4.38;;;;;;;;;;5091985;28;20063;-72
2021/06/25 14:46:09;;;;;;;5.85;4.38;;;;;;;;;;5093632;28;20531;-72
2021/06/25 14:48:35;;;;;;;7.15;4.93;;;;;;;;;;5092850;28;20031;-72
2021/06/25 14:51:02;;;;;;;6.00;4.90;;;;;;;;;;5092680;28;20024;-72
2021/06/25 14:53:27;;;;;;;6.93;4.95;;;;;;;;;;5092321;28;20099;-72
2021/06/25 14:55:53;;;;;;;7.22;5.07;;;;;;;;;;5092423;28;20161;-73
2021/06/25 14:58:18;;;;;;;6.95;5.47;;;;;;;;;;5092249;28;20027;-73
2021/06/25 15:00:45;;;;;;;8.18;4.30;;;;;;;;;;5092595;28;20032;-73